sensor_id;sensor_type;location;lat;lon;timestamp;temperature;humidity
13035;DHT22;6584;48.022;11.810;2023-01-10T00:00:30;4.20;99.90
13035;DHT22;6584;48.022;11.810;2023-01-10T00:03:00;4.20;99.90
13035;DHT22;6584;48.022;11.810;2023-01-10T00:05:26;4.20;99.90
13035;DHT22;6584;48.022;11.810;2023-01-10T00:07:51;4.20;99.90
13035;DHT22;6584;48.022;11.810;2023-01-10T00:10:17;4.10;99.90
13035;DHT22;6584;48.022;11.810;2023-01-10T00:12:43;4.10;99.90
13035;DHT22;6584;48.022;11.810;2023-01-10T00:15:27;4.10;99.90
13035;DHT22;6584;48.022;11.810;2023-01-10T00:17:55;4.10;99.90
13035;DHT22;6584;48.022;11.810;2023-01-10T00:20:21;4.10;99.90
13035;DHT22;6584;48.022;11.810;2023-01-10T00:22:46;4.00;99.90
13035;DHT22;6584;48.022;11.810;2023-01-10T00:25:14;4.00;99.90
13035;DHT22;6584;48.022;11.810;2023-01-10T00:27:39;4.00;99.90
13035;DHT22;6584;48.022;11.810;2023-01-10T00:30:05;4.10;99.90
13035;DHT22;6584;48.022;11.810;2023-01-10T00:32:39;4.10;99.90
13035;DHT22;6584;48.022;11.810;2023-01-10T00:35:05;4.10;99.90
13035;DHT22;6584;48.022;11.810;2023-01-10T00:37:31;4.00;99.90
13035;DHT22;6584;48.022;11.810;2023-01-10T00:39:57;4.10;99.90
13035;DHT22;6584;48.022;11.810;2023-01-10T00:42:23;4.10;99.90
13035;DHT22;6584;48.022;11.810;2023-01-10T00:45:08;4.00;99.90
13035;DHT22;6584;48.022;11.810;2023-01-10T00:47:34;4.00;99.90
13035;DHT22;6584;48.022;11.810;2023-01-10T00:49:59;4.00;99.90
13035;DHT22;6584;48.022;11.810;2023-01-10T00:52:25;4.00;99.90
13035;DHT22;6584;48.022;11.810;2023-01-10T00:54:50;4.00;99.90
13035;DHT22;6584;48.022;11.810;2023-01-10T00:57:16;4.10;99.90
13035;DHT22;6584;48.022;11.810;2023-01-10T00:59:41;4.00;99.90
13035;DHT22;6584;48.022;11.810;2023-01-10T01:02:07;4.00;99.90
13035;DHT22;6584;48.022;11.810;2023-01-10T01:04:32;4.00;99.90
13035;DHT22;6584;48.022;11.810;2023-01-10T01:07:00;4.00;99.90
13035;DHT22;6584;48.022;11.810;2023-01-10T01:09:27;4.10;99.90
13035;DHT22;6584;48.022;11.810;2023-01-10T01:11:53;4.10;99.90
13035;DHT22;6584;48.022;11.810;2023-01-10T01:14:20;4.10;99.90
13035;DHT22;6584;48.022;11.810;2023-01-10T01:16:46;4.10;99.90
13035;DHT22;6584;48.022;11.810;2023-01-10T01:19:11;4.00;99.90
13035;DHT22;6584;48.022;11.810;2023-01-10T01:21:37;4.10;99.90
13035;DHT22;6584;48.022;11.810;2023-01-10T01:24:02;4.10;99.90
13035;DHT22;6584;48.022;11.810;2023-01-10T01:26:28;4.00;99.90
13035;DHT22;6584;48.022;11.810;2023-01-10T01:28:54;4.00;99.90
13035;DHT22;6584;48.022;11.810;2023-01-10T01:31:20;4.00;99.90
13035;DHT22;6584;48.022;11.810;2023-01-10T01:33:46;4.10;99.90
13035;DHT22;6584;48.022;11.810;2023-01-10T01:36:11;4.10;99.90
13035;DHT22;6584;48.022;11.810;2023-01-10T01:38:38;4.10;99.90
13035;DHT22;6584;48.022;11.810;2023-01-10T01:41:05;4.00;99.90
13035;DHT22;6584;48.022;11.810;2023-01-10T01:44:13;4.10;99.90
13035;DHT22;6584;48.022;11.810;2023-01-10T01:46:39;4.10;99.90
13035;DHT22;6584;48.022;11.810;2023-01-10T01:49:15;4.00;99.90
13035;DHT22;6584;48.022;11.810;2023-01-10T01:51:42;4.00;99.90
13035;DHT22;6584;48.022;11.810;2023-01-10T01:54:11;4.10;99.90
13035;DHT22;6584;48.022;11.810;2023-01-10T01:56:49;4.10;99.90
13035;DHT22;6584;48.022;11.810;2023-01-10T01:59:29;4.10;99.90
13035;DHT22;6584;48.022;11.810;2023-01-10T02:02:03;4.00;99.90
13035;DHT22;6584;48.022;11.810;2023-01-10T02:04:40;4.10;99.90
13035;DHT22;6584;48.022;11.810;2023-01-10T02:07:06;4.00;99.90
13035;DHT22;6584;48.022;11.810;2023-01-10T02:09:44;4.00;99.90
13035;DHT22;6584;48.022;11.810;2023-01-10T02:12:11;4.00;99.90
13035;DHT22;6584;48.022;11.810;2023-01-10T02:14:39;4.00;99.90
13035;DHT22;6584;48.022;11.810;2023-01-10T02:17:08;4.00;99.90
13035;DHT22;6584;48.022;11.810;2023-01-10T02:19:54;4.00;99.90
13035;DHT22;6584;48.022;11.810;2023-01-10T02:31:36;4.00;99.90
13035;DHT22;6584;48.022;11.810;2023-01-10T02:39:23;4.00;99.90
13035;DHT22;6584;48.022;11.810;2023-01-10T02:42:08;4.00;99.90
13035;DHT22;6584;48.022;11.810;2023-01-10T02:45:01;4.00;99.90
13035;DHT22;6584;48.022;11.810;2023-01-10T02:47:36;4.00;99.90
13035;DHT22;6584;48.022;11.810;2023-01-10T02:50:28;4.00;99.90
13035;DHT22;6584;48.022;11.810;2023-01-10T02:52:58;4.00;99.90
13035;DHT22;6584;48.022;11.810;2023-01-10T02:56:24;4.00;99.90
13035;DHT22;6584;48.022;11.810;2023-01-10T03:01:13;4.00;99.90
13035;DHT22;6584;48.022;11.810;2023-01-10T03:09:13;4.00;99.90
13035;DHT22;6584;48.022;11.810;2023-01-10T03:11:41;4.00;99.90
13035;DHT22;6584;48.022;11.810;2023-01-10T03:14:17;4.00;99.90
13035;DHT22;6584;48.022;11.810;2023-01-10T03:16:49;4.00;99.90
13035;DHT22;6584;48.022;11.810;2023-01-10T03:19:20;4.00;99.90
13035;DHT22;6584;48.022;11.810;2023-01-10T03:21:47;4.00;99.90
13035;DHT22;6584;48.022;11.810;2023-01-10T03:24:23;4.00;99.90
13035;DHT22;6584;48.022;11.810;2023-01-10T03:27:12;4.00;99.90
13035;DHT22;6584;48.022;11.810;2023-01-10T03:32:16;4.00;99.90
13035;DHT22;6584;48.022;11.810;2023-01-10T03:34:43;3.90;99.90
13035;DHT22;6584;48.022;11.810;2023-01-10T03:37:13;3.90;99.90
13035;DHT22;6584;48.022;11.810;2023-01-10T03:42:43;3.90;99.90
13035;DHT22;6584;48.022;11.810;2023-01-10T03:45:35;3.90;99.90
13035;DHT22;6584;48.022;11.810;2023-01-10T03:48:05;3.90;99.90
13035;DHT22;6584;48.022;11.810;2023-01-10T03:50:33;3.90;99.90
13035;DHT22;6584;48.022;11.810;2023-01-10T03:52:59;3.90;99.90
13035;DHT22;6584;48.022;11.810;2023-01-10T03:55:27;3.90;99.90
13035;DHT22;6584;48.022;11.810;2023-01-10T03:57:53;4.00;99.90
13035;DHT22;6584;48.022;11.810;2023-01-10T04:00:19;4.00;99.90
13035;DHT22;6584;48.022;11.810;2023-01-10T04:02:44;4.00;99.90
13035;DHT22;6584;48.022;11.810;2023-01-10T04:05:11;3.90;99.90
13035;DHT22;6584;48.022;11.810;2023-01-10T04:07:36;4.00;99.90
13035;DHT22;6584;48.022;11.810;2023-01-10T04:10:05;4.00;99.90
13035;DHT22;6584;48.022;11.810;2023-01-10T04:12:31;4.00;99.90
13035;DHT22;6584;48.022;11.810;2023-01-10T04:14:57;4.00;99.90
13035;DHT22;6584;48.022;11.810;2023-01-10T04:17:22;4.00;99.90
13035;DHT22;6584;48.022;11.810;2023-01-10T04:19:48;3.90;99.90
13035;DHT22;6584;48.022;11.810;2023-01-10T04:22:13;3.90;99.90
13035;DHT22;6584;48.022;11.810;2023-01-10T04:24:39;3.90;99.90
13035;DHT22;6584;48.022;11.810;2023-01-10T04:27:05;3.90;99.90
13035;DHT22;6584;48.022;11.810;2023-01-10T04:29:31;3.90;99.90
13035;DHT22;6584;48.022;11.810;2023-01-10T04:31:57;3.90;99.90
13035;DHT22;6584;48.022;11.810;2023-01-10T04:34:22;4.00;99.90
13035;DHT22;6584;48.022;11.810;2023-01-10T04:36:48;3.90;99.90
13035;DHT22;6584;48.022;11.810;2023-01-10T04:39:14;3.90;99.90
13035;DHT22;6584;48.022;11.810;2023-01-10T04:41:40;3.80;99.90
13035;DHT22;6584;48.022;11.810;2023-01-10T04:44:05;4.00;99.90
13035;DHT22;6584;48.022;11.810;2023-01-10T04:46:31;3.90;99.90
13035;DHT22;6584;48.022;11.810;2023-01-10T04:48:57;4.00;99.90
13035;DHT22;6584;48.022;11.810;2023-01-10T04:51:27;4.10;99.90
13035;DHT22;6584;48.022;11.810;2023-01-10T04:53:53;4.00;99.90
13035;DHT22;6584;48.022;11.810;2023-01-10T04:56:20;4.00;99.90
13035;DHT22;6584;48.022;11.810;2023-01-10T04:58:46;4.10;99.90
13035;DHT22;6584;48.022;11.810;2023-01-10T05:01:15;4.10;99.90
13035;DHT22;6584;48.022;11.810;2023-01-10T05:03:41;4.00;99.90
13035;DHT22;6584;48.022;11.810;2023-01-10T05:06:07;4.00;99.90
13035;DHT22;6584;48.022;11.810;2023-01-10T05:08:32;4.00;99.90
13035;DHT22;6584;48.022;11.810;2023-01-10T05:10:58;4.00;99.90
13035;DHT22;6584;48.022;11.810;2023-01-10T05:13:24;4.00;99.90
13035;DHT22;6584;48.022;11.810;2023-01-10T05:15:53;3.90;99.90
13035;DHT22;6584;48.022;11.810;2023-01-10T05:18:20;3.90;99.90
13035;DHT22;6584;48.022;11.810;2023-01-10T05:20:46;3.90;99.90
13035;DHT22;6584;48.022;11.810;2023-01-10T05:23:11;3.90;99.90
13035;DHT22;6584;48.022;11.810;2023-01-10T05:25:37;3.90;99.90
13035;DHT22;6584;48.022;11.810;2023-01-10T05:28:02;3.90;99.90
13035;DHT22;6584;48.022;11.810;2023-01-10T05:30:28;3.90;99.90
13035;DHT22;6584;48.022;11.810;2023-01-10T05:32:53;3.80;99.90
13035;DHT22;6584;48.022;11.810;2023-01-10T05:35:19;3.80;99.90
13035;DHT22;6584;48.022;11.810;2023-01-10T05:37:44;3.80;99.90
13035;DHT22;6584;48.022;11.810;2023-01-10T05:40:10;3.90;99.90
13035;DHT22;6584;48.022;11.810;2023-01-10T05:42:36;3.90;99.90
13035;DHT22;6584;48.022;11.810;2023-01-10T05:45:02;3.90;99.90
13035;DHT22;6584;48.022;11.810;2023-01-10T05:47:28;3.90;99.90
13035;DHT22;6584;48.022;11.810;2023-01-10T05:49:54;3.90;99.90
13035;DHT22;6584;48.022;11.810;2023-01-10T05:52:20;4.00;99.90
13035;DHT22;6584;48.022;11.810;2023-01-10T05:54:46;4.00;99.90
13035;DHT22;6584;48.022;11.810;2023-01-10T05:57:11;4.00;99.90
13035;DHT22;6584;48.022;11.810;2023-01-10T05:59:37;4.00;99.90
13035;DHT22;6584;48.022;11.810;2023-01-10T06:02:02;3.90;99.90
13035;DHT22;6584;48.022;11.810;2023-01-10T06:04:28;4.00;99.90
13035;DHT22;6584;48.022;11.810;2023-01-10T06:06:53;3.90;99.90
13035;DHT22;6584;48.022;11.810;2023-01-10T06:09:19;3.90;99.90
13035;DHT22;6584;48.022;11.810;2023-01-10T06:11:44;3.90;99.90
13035;DHT22;6584;48.022;11.810;2023-01-10T06:14:10;3.90;99.90
13035;DHT22;6584;48.022;11.810;2023-01-10T06:16:35;4.00;99.90
13035;DHT22;6584;48.022;11.810;2023-01-10T06:19:01;3.90;99.90
13035;DHT22;6584;48.022;11.810;2023-01-10T06:21:26;3.90;99.90
13035;DHT22;6584;48.022;11.810;2023-01-10T06:23:52;3.90;99.90
13035;DHT22;6584;48.022;11.810;2023-01-10T06:26:18;3.80;99.90
13035;DHT22;6584;48.022;11.810;2023-01-10T06:28:43;3.80;99.90
13035;DHT22;6584;48.022;11.810;2023-01-10T06:31:09;3.80;99.90
13035;DHT22;6584;48.022;11.810;2023-01-10T06:33:35;3.80;99.90
13035;DHT22;6584;48.022;11.810;2023-01-10T06:36:01;3.80;99.90
13035;DHT22;6584;48.022;11.810;2023-01-10T06:38:26;3.80;99.90
13035;DHT22;6584;48.022;11.810;2023-01-10T06:40:52;3.90;99.90
13035;DHT22;6584;48.022;11.810;2023-01-10T06:43:17;3.90;99.90
13035;DHT22;6584;48.022;11.810;2023-01-10T06:45:43;3.90;99.90
13035;DHT22;6584;48.022;11.810;2023-01-10T06:48:08;3.90;99.90
13035;DHT22;6584;48.022;11.810;2023-01-10T06:50:34;3.80;99.90
13035;DHT22;6584;48.022;11.810;2023-01-10T06:53:01;3.90;99.90
13035;DHT22;6584;48.022;11.810;2023-01-10T06:55:28;3.90;99.90
13035;DHT22;6584;48.022;11.810;2023-01-10T06:58:03;3.80;99.90
13035;DHT22;6584;48.022;11.810;2023-01-10T07:00:30;3.80;99.90
13035;DHT22;6584;48.022;11.810;2023-01-10T07:03:00;3.80;99.90
13035;DHT22;6584;48.022;11.810;2023-01-10T07:05:26;3.80;99.90
13035;DHT22;6584;48.022;11.810;2023-01-10T07:07:53;3.80;99.90
13035;DHT22;6584;48.022;11.810;2023-01-10T07:10:19;3.80;99.90
13035;DHT22;6584;48.022;11.810;2023-01-10T07:12:44;3.80;99.90
13035;DHT22;6584;48.022;11.810;2023-01-10T07:15:10;3.90;99.90
13035;DHT22;6584;48.022;11.810;2023-01-10T07:17:36;3.90;99.90
13035;DHT22;6584;48.022;11.810;2023-01-10T07:20:01;3.90;99.90
13035;DHT22;6584;48.022;11.810;2023-01-10T07:22:27;3.90;99.90
13035;DHT22;6584;48.022;11.810;2023-01-10T07:24:52;3.80;99.90
13035;DHT22;6584;48.022;11.810;2023-01-10T07:27:19;3.80;99.90
13035;DHT22;6584;48.022;11.810;2023-01-10T07:29:44;3.80;99.90
13035;DHT22;6584;48.022;11.810;2023-01-10T07:32:10;3.80;99.90
13035;DHT22;6584;48.022;11.810;2023-01-10T07:34:35;3.80;99.90
13035;DHT22;6584;48.022;11.810;2023-01-10T07:37:01;3.80;99.90
13035;DHT22;6584;48.022;11.810;2023-01-10T07:39:26;3.70;99.90
13035;DHT22;6584;48.022;11.810;2023-01-10T07:41:52;3.80;99.90
13035;DHT22;6584;48.022;11.810;2023-01-10T07:44:17;3.70;99.90
13035;DHT22;6584;48.022;11.810;2023-01-10T07:46:43;3.70;99.90
13035;DHT22;6584;48.022;11.810;2023-01-10T07:49:09;3.70;99.90
13035;DHT22;6584;48.022;11.810;2023-01-10T07:51:34;3.70;99.90
13035;DHT22;6584;48.022;11.810;2023-01-10T07:54:00;3.60;99.90
13035;DHT22;6584;48.022;11.810;2023-01-10T07:56:25;3.60;99.90
13035;DHT22;6584;48.022;11.810;2023-01-10T07:58:51;3.70;99.90
13035;DHT22;6584;48.022;11.810;2023-01-10T08:01:17;3.70;99.90
13035;DHT22;6584;48.022;11.810;2023-01-10T08:03:42;3.60;99.90
13035;DHT22;6584;48.022;11.810;2023-01-10T08:06:09;3.60;99.90
13035;DHT22;6584;48.022;11.810;2023-01-10T08:08:36;3.60;99.90
13035;DHT22;6584;48.022;11.810;2023-01-10T08:11:02;3.60;99.90
13035;DHT22;6584;48.022;11.810;2023-01-10T08:13:29;3.60;99.90
13035;DHT22;6584;48.022;11.810;2023-01-10T08:15:54;3.60;99.90
13035;DHT22;6584;48.022;11.810;2023-01-10T08:18:22;3.60;99.90
13035;DHT22;6584;48.022;11.810;2023-01-10T08:20:48;3.70;99.90
13035;DHT22;6584;48.022;11.810;2023-01-10T08:23:14;3.80;99.90
13035;DHT22;6584;48.022;11.810;2023-01-10T08:25:40;3.80;99.90
13035;DHT22;6584;48.022;11.810;2023-01-10T08:28:06;3.70;99.90
13035;DHT22;6584;48.022;11.810;2023-01-10T08:30:31;3.70;99.90
13035;DHT22;6584;48.022;11.810;2023-01-10T08:32:57;3.80;99.90
13035;DHT22;6584;48.022;11.810;2023-01-10T08:35:23;3.80;99.90
13035;DHT22;6584;48.022;11.810;2023-01-10T08:37:48;3.80;99.90
13035;DHT22;6584;48.022;11.810;2023-01-10T08:40:14;3.80;99.90
13035;DHT22;6584;48.022;11.810;2023-01-10T08:42:39;3.70;99.90
13035;DHT22;6584;48.022;11.810;2023-01-10T08:45:05;3.80;99.90
13035;DHT22;6584;48.022;11.810;2023-01-10T08:47:31;3.80;99.90
13035;DHT22;6584;48.022;11.810;2023-01-10T08:49:56;3.80;99.90
13035;DHT22;6584;48.022;11.810;2023-01-10T08:52:22;3.90;99.90
13035;DHT22;6584;48.022;11.810;2023-01-10T08:54:47;3.90;99.90
13035;DHT22;6584;48.022;11.810;2023-01-10T08:57:14;3.90;99.90
13035;DHT22;6584;48.022;11.810;2023-01-10T08:59:40;3.90;99.90
13035;DHT22;6584;48.022;11.810;2023-01-10T09:02:05;4.00;99.90
13035;DHT22;6584;48.022;11.810;2023-01-10T09:04:32;3.90;99.90
13035;DHT22;6584;48.022;11.810;2023-01-10T09:06:58;4.00;99.90
13035;DHT22;6584;48.022;11.810;2023-01-10T09:09:23;4.00;99.90
13035;DHT22;6584;48.022;11.810;2023-01-10T09:11:49;3.90;99.90
13035;DHT22;6584;48.022;11.810;2023-01-10T09:14:15;3.80;99.90
13035;DHT22;6584;48.022;11.810;2023-01-10T09:16:41;3.80;99.90
13035;DHT22;6584;48.022;11.810;2023-01-10T09:19:06;3.90;99.90
13035;DHT22;6584;48.022;11.810;2023-01-10T09:21:32;3.90;99.90
13035;DHT22;6584;48.022;11.810;2023-01-10T09:23:58;3.90;99.90
13035;DHT22;6584;48.022;11.810;2023-01-10T09:26:23;4.00;99.90
13035;DHT22;6584;48.022;11.810;2023-01-10T09:28:49;4.10;99.90
13035;DHT22;6584;48.022;11.810;2023-01-10T09:31:14;4.20;99.90
13035;DHT22;6584;48.022;11.810;2023-01-10T09:33:40;4.30;99.90
13035;DHT22;6584;48.022;11.810;2023-01-10T09:36:07;4.30;99.90
13035;DHT22;6584;48.022;11.810;2023-01-10T09:38:34;4.20;99.90
13035;DHT22;6584;48.022;11.810;2023-01-10T09:47:15;4.00;99.90
13035;DHT22;6584;48.022;11.810;2023-01-10T09:52:22;3.90;99.90
13035;DHT22;6584;48.022;11.810;2023-01-10T09:54:51;3.80;99.90
13035;DHT22;6584;48.022;11.810;2023-01-10T09:57:19;3.80;99.90
13035;DHT22;6584;48.022;11.810;2023-01-10T09:59:46;3.80;99.90
13035;DHT22;6584;48.022;11.810;2023-01-10T10:05:21;3.80;99.90
13035;DHT22;6584;48.022;11.810;2023-01-10T10:07:57;3.90;99.90
13035;DHT22;6584;48.022;11.810;2023-01-10T10:21:15;4.10;99.90
13035;DHT22;6584;48.022;11.810;2023-01-10T10:26:34;4.30;99.90
13035;DHT22;6584;48.022;11.810;2023-01-10T10:29:17;4.30;99.90
13035;DHT22;6584;48.022;11.810;2023-01-10T10:34:50;4.50;99.90
13035;DHT22;6584;48.022;11.810;2023-01-10T10:37:31;4.40;99.90
13035;DHT22;6584;48.022;11.810;2023-01-10T10:42:42;4.50;99.90
13035;DHT22;6584;48.022;11.810;2023-01-10T10:48:24;4.60;99.90
13035;DHT22;6584;48.022;11.810;2023-01-10T10:51:44;4.80;99.90
13035;DHT22;6584;48.022;11.810;2023-01-10T10:54:03;5.00;99.90
13035;DHT22;6584;48.022;11.810;2023-01-10T10:56:30;5.00;99.90
13035;DHT22;6584;48.022;11.810;2023-01-10T10:58:58;5.20;99.90
13035;DHT22;6584;48.022;11.810;2023-01-10T11:01:24;5.10;99.90
13035;DHT22;6584;48.022;11.810;2023-01-10T11:03:59;5.10;99.90
13035;DHT22;6584;48.022;11.810;2023-01-10T11:06:28;5.00;99.90
13035;DHT22;6584;48.022;11.810;2023-01-10T11:08:57;4.90;99.90
13035;DHT22;6584;48.022;11.810;2023-01-10T11:14:00;5.00;99.90
13035;DHT22;6584;48.022;11.810;2023-01-10T11:19:24;5.00;99.90
13035;DHT22;6584;48.022;11.810;2023-01-10T11:21:56;5.00;99.90
13035;DHT22;6584;48.022;11.810;2023-01-10T11:24:28;5.10;99.90
13035;DHT22;6584;48.022;11.810;2023-01-10T11:26:57;5.00;99.90
13035;DHT22;6584;48.022;11.810;2023-01-10T11:29:38;5.10;99.90
13035;DHT22;6584;48.022;11.810;2023-01-10T11:32:12;5.00;99.90
13035;DHT22;6584;48.022;11.810;2023-01-10T11:34:41;5.00;99.90
13035;DHT22;6584;48.022;11.810;2023-01-10T11:37:17;5.00;99.90
13035;DHT22;6584;48.022;11.810;2023-01-10T11:39:44;4.90;99.90
13035;DHT22;6584;48.022;11.810;2023-01-10T11:42:27;4.90;99.90
13035;DHT22;6584;48.022;11.810;2023-01-10T11:47:45;4.80;99.90
13035;DHT22;6584;48.022;11.810;2023-01-10T11:50:19;4.80;99.90
13035;DHT22;6584;48.022;11.810;2023-01-10T11:52:45;4.60;99.90
13035;DHT22;6584;48.022;11.810;2023-01-10T11:55:30;4.80;99.90
13035;DHT22;6584;48.022;11.810;2023-01-10T11:58:06;4.80;99.90
13035;DHT22;6584;48.022;11.810;2023-01-10T12:03:28;4.80;99.90
13035;DHT22;6584;48.022;11.810;2023-01-10T12:05:59;4.90;99.90
13035;DHT22;6584;48.022;11.810;2023-01-10T12:08:29;4.80;99.90
13035;DHT22;6584;48.022;11.810;2023-01-10T12:11:02;4.80;99.90
13035;DHT22;6584;48.022;11.810;2023-01-10T12:13:29;4.70;99.90
13035;DHT22;6584;48.022;11.810;2023-01-10T12:16:18;4.70;99.90
13035;DHT22;6584;48.022;11.810;2023-01-10T12:18:46;4.60;99.90
13035;DHT22;6584;48.022;11.810;2023-01-10T12:21:14;4.50;99.90
13035;DHT22;6584;48.022;11.810;2023-01-10T12:23:42;4.30;99.90
13035;DHT22;6584;48.022;11.810;2023-01-10T12:26:11;4.30;99.90
13035;DHT22;6584;48.022;11.810;2023-01-10T12:28:45;4.30;99.90
13035;DHT22;6584;48.022;11.810;2023-01-10T12:31:14;4.20;99.90
13035;DHT22;6584;48.022;11.810;2023-01-10T12:33:44;4.20;99.90
13035;DHT22;6584;48.022;11.810;2023-01-10T12:39:27;4.30;99.90
13035;DHT22;6584;48.022;11.810;2023-01-10T12:45:01;4.50;99.90
13035;DHT22;6584;48.022;11.810;2023-01-10T12:47:53;4.60;99.90
13035;DHT22;6584;48.022;11.810;2023-01-10T12:50:30;4.70;99.90
13035;DHT22;6584;48.022;11.810;2023-01-10T12:53:22;4.80;99.90
13035;DHT22;6584;48.022;11.810;2023-01-10T12:55:52;4.90;99.90
13035;DHT22;6584;48.022;11.810;2023-01-10T12:58:38;4.90;99.90
13035;DHT22;6584;48.022;11.810;2023-01-10T13:01:13;4.90;99.90
13035;DHT22;6584;48.022;11.810;2023-01-10T13:03:41;5.00;99.90
13035;DHT22;6584;48.022;11.810;2023-01-10T13:06:23;5.00;99.90
13035;DHT22;6584;48.022;11.810;2023-01-10T13:08:53;5.00;99.90
13035;DHT22;6584;48.022;11.810;2023-01-10T13:11:21;5.00;99.90
13035;DHT22;6584;48.022;11.810;2023-01-10T13:13:56;5.00;99.90
13035;DHT22;6584;48.022;11.810;2023-01-10T13:16:42;5.00;99.90
13035;DHT22;6584;48.022;11.810;2023-01-10T13:21:42;5.10;99.90
13035;DHT22;6584;48.022;11.810;2023-01-10T13:24:20;5.10;99.90
13035;DHT22;6584;48.022;11.810;2023-01-10T13:26:56;5.10;99.90
13035;DHT22;6584;48.022;11.810;2023-01-10T13:29:24;5.00;99.90
13035;DHT22;6584;48.022;11.810;2023-01-10T13:31:51;5.10;99.90
13035;DHT22;6584;48.022;11.810;2023-01-10T13:34:26;5.10;99.90
13035;DHT22;6584;48.022;11.810;2023-01-10T13:37:02;5.20;99.90
13035;DHT22;6584;48.022;11.810;2023-01-10T13:39:40;5.10;99.90
13035;DHT22;6584;48.022;11.810;2023-01-10T13:42:20;5.10;99.90
13035;DHT22;6584;48.022;11.810;2023-01-10T13:55:27;4.90;99.90
13035;DHT22;6584;48.022;11.810;2023-01-10T13:58:43;5.00;99.90
13035;DHT22;6584;48.022;11.810;2023-01-10T14:00:48;5.00;99.90
13035;DHT22;6584;48.022;11.810;2023-01-10T14:03:46;5.00;99.90
13035;DHT22;6584;48.022;11.810;2023-01-10T14:08:53;4.90;99.90
13035;DHT22;6584;48.022;11.810;2023-01-10T14:11:24;4.90;99.90
13035;DHT22;6584;48.022;11.810;2023-01-10T14:13:54;4.80;99.90
13035;DHT22;6584;48.022;11.810;2023-01-10T14:18:58;4.80;99.90
13035;DHT22;6584;48.022;11.810;2023-01-10T14:21:25;4.80;99.90
13035;DHT22;6584;48.022;11.810;2023-01-10T14:23:52;4.80;99.90
13035;DHT22;6584;48.022;11.810;2023-01-10T14:26:36;4.80;99.90
13035;DHT22;6584;48.022;11.810;2023-01-10T14:29:07;4.80;99.90
13035;DHT22;6584;48.022;11.810;2023-01-10T14:31:41;4.80;99.90
13035;DHT22;6584;48.022;11.810;2023-01-10T14:34:09;4.90;99.90
13035;DHT22;6584;48.022;11.810;2023-01-10T14:36:47;4.90;99.90
13035;DHT22;6584;48.022;11.810;2023-01-10T14:39:14;4.90;99.90
13035;DHT22;6584;48.022;11.810;2023-01-10T14:41:43;4.80;99.90
13035;DHT22;6584;48.022;11.810;2023-01-10T14:44:29;4.80;99.90
13035;DHT22;6584;48.022;11.810;2023-01-10T14:46:57;4.80;99.90
13035;DHT22;6584;48.022;11.810;2023-01-10T14:49:27;4.90;99.90
13035;DHT22;6584;48.022;11.810;2023-01-10T14:51:54;4.80;99.90
13035;DHT22;6584;48.022;11.810;2023-01-10T14:54:25;4.80;99.90
13035;DHT22;6584;48.022;11.810;2023-01-10T14:56:53;4.80;99.90
13035;DHT22;6584;48.022;11.810;2023-01-10T14:59:24;4.70;99.90
13035;DHT22;6584;48.022;11.810;2023-01-10T15:01:53;4.80;99.90
13035;DHT22;6584;48.022;11.810;2023-01-10T15:04:21;4.80;99.90
13035;DHT22;6584;48.022;11.810;2023-01-10T15:07:02;4.90;99.90
13035;DHT22;6584;48.022;11.810;2023-01-10T15:09:34;4.90;99.90
13035;DHT22;6584;48.022;11.810;2023-01-10T15:12:03;4.90;99.90
13035;DHT22;6584;48.022;11.810;2023-01-10T15:14:30;4.80;99.90
13035;DHT22;6584;48.022;11.810;2023-01-10T15:16:59;4.80;99.90
13035;DHT22;6584;48.022;11.810;2023-01-10T15:19:33;4.80;99.90
13035;DHT22;6584;48.022;11.810;2023-01-10T15:22:00;4.90;99.90
13035;DHT22;6584;48.022;11.810;2023-01-10T15:24:33;4.80;99.90
13035;DHT22;6584;48.022;11.810;2023-01-10T15:27:05;4.80;99.90
13035;DHT22;6584;48.022;11.810;2023-01-10T15:29:33;4.80;99.90
13035;DHT22;6584;48.022;11.810;2023-01-10T15:32:21;4.80;99.90
13035;DHT22;6584;48.022;11.810;2023-01-10T15:34:49;4.80;99.90
13035;DHT22;6584;48.022;11.810;2023-01-10T15:37:20;4.70;99.90
13035;DHT22;6584;48.022;11.810;2023-01-10T15:39:47;4.60;99.90
13035;DHT22;6584;48.022;11.810;2023-01-10T15:42:13;4.60;99.90
13035;DHT22;6584;48.022;11.810;2023-01-10T15:44:46;4.60;99.90
13035;DHT22;6584;48.022;11.810;2023-01-10T15:47:49;4.50;99.90
13035;DHT22;6584;48.022;11.810;2023-01-10T15:52:58;4.50;99.90
13035;DHT22;6584;48.022;11.810;2023-01-10T15:55:56;4.40;99.90
13035;DHT22;6584;48.022;11.810;2023-01-10T15:58:35;4.40;99.90
13035;DHT22;6584;48.022;11.810;2023-01-10T16:01:02;4.30;99.90
13035;DHT22;6584;48.022;11.810;2023-01-10T16:06:23;4.30;99.90
13035;DHT22;6584;48.022;11.810;2023-01-10T16:08:52;4.20;99.90
13035;DHT22;6584;48.022;11.810;2023-01-10T16:11:35;4.20;99.90
13035;DHT22;6584;48.022;11.810;2023-01-10T16:14:21;4.10;99.90
13035;DHT22;6584;48.022;11.810;2023-01-10T16:16:46;4.00;99.90
13035;DHT22;6584;48.022;11.810;2023-01-10T16:19:12;4.00;99.90
13035;DHT22;6584;48.022;11.810;2023-01-10T16:21:40;4.00;99.90
13035;DHT22;6584;48.022;11.810;2023-01-10T16:24:13;3.90;99.90
13035;DHT22;6584;48.022;11.810;2023-01-10T16:26:40;3.90;99.90
13035;DHT22;6584;48.022;11.810;2023-01-10T16:29:06;3.80;99.90
13035;DHT22;6584;48.022;11.810;2023-01-10T16:31:31;3.80;99.90
13035;DHT22;6584;48.022;11.810;2023-01-10T16:33:57;3.80;99.90
13035;DHT22;6584;48.022;11.810;2023-01-10T16:36:22;3.70;99.90
13035;DHT22;6584;48.022;11.810;2023-01-10T16:38:48;3.70;99.90
13035;DHT22;6584;48.022;11.810;2023-01-10T16:41:14;3.70;99.90
13035;DHT22;6584;48.022;11.810;2023-01-10T16:43:58;3.60;99.90
13035;DHT22;6584;48.022;11.810;2023-01-10T16:46:25;3.60;99.90
13035;DHT22;6584;48.022;11.810;2023-01-10T16:48:50;3.50;99.90
13035;DHT22;6584;48.022;11.810;2023-01-10T16:51:25;3.50;99.90
13035;DHT22;6584;48.022;11.810;2023-01-10T16:53:53;3.50;99.90
13035;DHT22;6584;48.022;11.810;2023-01-10T16:56:24;3.40;99.90
13035;DHT22;6584;48.022;11.810;2023-01-10T16:58:51;3.20;99.90
13035;DHT22;6584;48.022;11.810;2023-01-10T17:01:18;3.10;99.90
13035;DHT22;6584;48.022;11.810;2023-01-10T17:03:45;3.10;99.90
13035;DHT22;6584;48.022;11.810;2023-01-10T17:06:12;3.00;99.90
13035;DHT22;6584;48.022;11.810;2023-01-10T17:08:38;3.00;99.90
13035;DHT22;6584;48.022;11.810;2023-01-10T17:11:05;3.00;99.90
13035;DHT22;6584;48.022;11.810;2023-01-10T17:13:33;3.00;99.90
13035;DHT22;6584;48.022;11.810;2023-01-10T17:16:00;3.00;99.90
13035;DHT22;6584;48.022;11.810;2023-01-10T17:18:26;2.90;99.90
13035;DHT22;6584;48.022;11.810;2023-01-10T17:20:53;2.90;99.90
13035;DHT22;6584;48.022;11.810;2023-01-10T17:23:20;2.90;99.90
13035;DHT22;6584;48.022;11.810;2023-01-10T17:25:46;2.90;99.90
13035;DHT22;6584;48.022;11.810;2023-01-10T17:28:14;2.90;99.90
13035;DHT22;6584;48.022;11.810;2023-01-10T17:30:40;2.90;99.90
13035;DHT22;6584;48.022;11.810;2023-01-10T17:33:06;2.90;99.90
13035;DHT22;6584;48.022;11.810;2023-01-10T17:35:44;2.80;99.90
13035;DHT22;6584;48.022;11.810;2023-01-10T17:38:12;2.80;99.90
13035;DHT22;6584;48.022;11.810;2023-01-10T17:40:43;2.80;99.90
13035;DHT22;6584;48.022;11.810;2023-01-10T17:43:10;2.80;99.90